Time;durP1;ratioP1;P1;durP2;ratioP2;P2;SDS_P1;SDS_P2;PMS_P1;PMS_P2;Temp;Humidity;BMP_temperature;BMP_pressure;BME280_temperature;BME280_humidity;BME280_pressure;Samples;Min_cycle;Max_cycle;Signal;HPM_P1;HPM_P2
2020/12/11 00:00:25;;;;;;;20.70;15.15;;;4.50;99.90;;;;;;5074691;28;20032;-92
2020/12/11 00:03:44;;;;;;;17.60;13.35;;;4.50;99.90;;;;;;5074389;28;20599;-92
2020/12/11 00:06:10;;;;;;;17.40;12.80;;;4.60;99.90;;;;;;5085108;28;20020;-92
2020/12/11 00:08:35;;;;;;;18.08;13.10;;;4.50;99.90;;;;;;5094603;28;20115;-92
2020/12/11 00:11:01;;;;;;;18.50;12.73;;;4.50;99.90;;;;;;5078462;28;20115;-92
2020/12/11 00:13:27;;;;;;;14.40;11.55;;;4.40;99.90;;;;;;5073291;28;20040;-92
2020/12/11 00:15:52;;;;;;;17.90;11.48;;;4.50;99.90;;;;;;5073731;28;20029;-92
2020/12/11 00:18:18;;;;;;;13.60;10.23;;;4.30;99.90;;;;;;5073930;28;20020;-92
2020/12/11 00:20:43;;;;;;;15.32;11.05;;;4.20;99.90;;;;;;5073916;28;20061;-92
2020/12/11 00:23:09;;;;;;;14.52;10.85;;;4.10;99.90;;;;;;5073811;28;20027;-92
2020/12/11 00:25:35;;;;;;;14.23;11.30;;;4.60;99.90;;;;;;5073703;28;20461;-92
2020/12/11 00:28:01;;;;;;;14.68;11.10;;;4.10;99.90;;;;;;5074191;28;20070;-93
2020/12/11 00:30:27;;;;;;;15.90;11.82;;;4.00;99.90;;;;;;5073735;28;20028;-92
2020/12/11 00:32:52;;;;;;;15.20;11.20;;;4.30;99.90;;;;;;5073690;28;20027;-93
2020/12/11 00:35:18;;;;;;;13.60;10.75;;;4.10;99.90;;;;;;5073737;28;20024;-92
2020/12/11 00:37:43;;;;;;;14.00;10.10;;;4.20;99.90;;;;;;5073753;28;20070;-93
2020/12/11 00:40:09;;;;;;;14.30;11.05;;;4.20;99.90;;;;;;5073713;28;20032;-93
2020/12/11 00:42:35;;;;;;;14.18;10.38;;;4.20;99.90;;;;;;5073553;28;20048;-93
2020/12/11 00:45:00;;;;;;;14.77;10.63;;;3.90;99.90;;;;;;5073566;28;20503;-93
2020/12/11 00:47:26;;;;;;;15.48;10.88;;;3.90;99.90;;;;;;5073509;28;20044;-92
2020/12/11 00:49:51;;;;;;;13.63;9.98;;;4.10;99.90;;;;;;5073611;28;20025;-93
2020/12/11 00:52:17;;;;;;;13.70;9.65;;;3.50;99.90;;;;;;5073271;28;20100;-93
2020/12/11 00:54:42;;;;;;;12.57;10.30;;;4.00;99.90;;;;;;5073517;28;20027;-94
2020/12/11 00:57:08;;;;;;;14.57;10.85;;;3.70;99.90;;;;;;5073551;28;20035;-93
2020/12/11 00:59:34;;;;;;;15.05;10.85;;;3.50;99.90;;;;;;5073173;28;20032;-93
2020/12/11 01:01:59;;;;;;;15.93;11.65;;;3.80;99.90;;;;;;5073326;28;20485;-93
2020/12/11 01:04:25;;;;;;;15.95;11.25;;;3.70;99.90;;;;;;5073258;28;20028;-93
2020/12/11 01:06:50;;;;;;;12.48;9.70;;;3.30;99.90;;;;;;5073166;28;20115;-93
2020/12/11 01:09:16;;;;;;;12.50;9.48;;;3.40;99.90;;;;;;5073164;28;20039;-93
2020/12/11 01:11:42;;;;;;;12.20;9.13;;;3.40;99.90;;;;;;5072956;28;20492;-93
2020/12/11 01:14:07;;;;;;;11.35;8.98;;;3.70;99.90;;;;;;5073006;28;20020;-93
2020/12/11 01:16:33;;;;;;;12.65;10.38;;;3.60;99.90;;;;;;5073136;28;20025;-93
2020/12/11 01:18:59;;;;;;;11.57;9.77;;;3.20;99.90;;;;;;5073103;28;20023;-93
2020/12/11 01:21:25;;;;;;;11.50;9.25;;;3.30;99.90;;;;;;5072818;28;20115;-93
2020/12/11 01:23:50;;;;;;;12.15;9.73;;;3.50;99.90;;;;;;5072996;28;20066;-93
2020/12/11 01:26:16;;;;;;;13.05;9.18;;;3.80;99.90;;;;;;5072102;28;20507;-93
2020/12/11 01:28:41;;;;;;;11.52;8.23;;;3.20;99.90;;;;;;5072912;28;20054;-94
2020/12/11 01:31:07;;;;;;;10.65;8.55;;;3.30;99.90;;;;;;5072586;28;20499;-93
2020/12/11 01:33:33;;;;;;;12.63;8.55;;;3.50;99.90;;;;;;5072752;28;20025;-93
2020/12/11 01:35:58;;;;;;;11.10;8.40;;;3.70;99.90;;;;;;5072864;28;20021;-93
2020/12/11 01:38:24;;;;;;;10.20;8.65;;;3.70;99.90;;;;;;5072762;28;20100;-93
2020/12/11 01:40:51;;;;;;;10.65;8.68;;;3.50;99.90;;;;;;5077024;28;20020;-93
2020/12/11 01:43:20;;;;;;;10.93;8.73;;;3.70;99.90;;;;;;5091294;28;20032;-93
2020/12/11 01:45:46;;;;;;;12.40;8.52;;;3.40;99.90;;;;;;5091267;28;20024;-93
2020/12/11 01:48:12;;;;;;;11.52;8.32;;;3.10;99.90;;;;;;5092900;28;20024;-92
2020/12/11 01:50:39;;;;;;;12.25;8.85;;;3.50;99.90;;;;;;5093105;28;20032;-93
2020/12/11 01:53:05;;;;;;;12.13;8.75;;;3.70;99.90;;;;;;5084201;28;20012;-93
2020/12/11 01:55:31;;;;;;;12.13;8.73;;;3.50;99.90;;;;;;5072619;28;20021;-93
2020/12/11 01:57:59;;;;;;;11.32;8.65;;;3.70;99.90;;;;;;5072340;28;20028;-93
2020/12/11 02:00:25;;;;;;;12.85;8.60;;;3.70;99.90;;;;;;5086950;28;20032;-93
2020/12/11 02:03:06;;;;;;;9.70;7.63;;;3.40;99.90;;;;;;5092574;28;20430;-93
2020/12/11 02:05:32;;;;;;;10.48;7.80;;;3.70;99.90;;;;;;5072826;28;20400;-92
2020/12/11 02:07:59;;;;;;;10.80;8.43;;;3.20;99.90;;;;;;5072521;28;20027;-93
2020/12/11 02:10:24;;;;;;;11.02;8.35;;;3.40;99.90;;;;;;5072457;28;20127;-93
2020/12/11 02:12:50;;;;;;;13.70;9.85;;;3.20;99.90;;;;;;5084986;28;20118;-93
2020/12/11 02:15:16;;;;;;;12.80;8.80;;;3.20;99.90;;;;;;5076877;28;20032;-93
2020/12/11 02:17:42;;;;;;;12.35;8.63;;;3.40;99.90;;;;;;5072520;28;20029;-93
2020/12/11 02:20:07;;;;;;;11.95;8.60;;;3.60;99.90;;;;;;5074599;28;20064;-93
2020/12/11 02:22:33;;;;;;;14.13;9.35;;;3.60;99.90;;;;;;5092293;28;20020;-93
2020/12/11 02:24:59;;;;;;;10.93;8.27;;;3.00;99.90;;;;;;5073780;28;20084;-93
2020/12/11 02:27:24;;;;;;;11.57;7.60;;;3.50;99.90;;;;;;5072105;28;20590;-92
2020/12/11 02:29:50;;;;;;;9.90;7.35;;;3.50;99.90;;;;;;5074108;28;20016;-93
2020/12/11 02:32:16;;;;;;;8.93;7.15;;;3.40;99.90;;;;;;5087027;28;20119;-93
2020/12/11 02:34:42;;;;;;;12.27;8.57;;;3.20;99.90;;;;;;5092213;28;20369;-93
2020/12/11 02:37:09;;;;;;;10.35;8.48;;;3.00;99.90;;;;;;5088469;28;20032;-93
2020/12/11 02:39:35;;;;;;;11.57;8.75;;;3.00;99.90;;;;;;5076045;28;20085;-93
2020/12/11 02:42:01;;;;;;;10.45;8.02;;;3.40;99.90;;;;;;5075670;28;20556;-93
2020/12/11 02:44:26;;;;;;;10.65;8.23;;;3.50;99.90;;;;;;5076007;28;20108;-92
2020/12/11 02:46:52;;;;;;;10.77;8.02;;;2.80;99.90;;;;;;5089790;28;20028;-93
2020/12/11 02:49:18;;;;;;;11.07;8.40;;;3.20;99.90;;;;;;5096010;28;20028;-93
2020/12/11 02:51:44;;;;;;;11.80;8.88;;;3.10;99.90;;;;;;5091581;28;20107;-93
2020/12/11 02:54:10;;;;;;;11.00;8.38;;;3.50;99.90;;;;;;5092374;28;20048;-92
2020/12/11 02:56:35;;;;;;;11.10;8.25;;;3.70;99.90;;;;;;5095649;28;20024;-93
2020/12/11 02:59:01;;;;;;;12.45;9.40;;;3.50;99.90;;;;;;5094807;28;20024;-93
2020/12/11 03:01:27;;;;;;;14.65;9.25;;;3.10;99.90;;;;;;5091018;28;20035;-92
2020/12/11 03:03:56;;;;;;;13.82;9.73;;;3.60;99.90;;;;;;5095034;28;20031;-93
2020/12/11 03:06:27;;;;;;;11.68;8.98;;;3.00;99.90;;;;;;5093414;28;20028;-92
2020/12/11 03:08:53;;;;;;;12.95;9.70;;;3.00;99.90;;;;;;5075386;28;20024;-93
2020/12/11 03:11:18;;;;;;;13.15;9.75;;;3.50;99.90;;;;;;5083316;28;20592;-93
2020/12/11 03:13:45;;;;;;;12.85;10.00;;;3.20;99.90;;;;;;5075066;28;20043;-93
2020/12/11 03:16:11;;;;;;;12.43;9.32;;;3.40;99.90;;;;;;5094810;28;20027;-92
2020/12/11 03:18:36;;;;;;;13.82;10.13;;;3.10;99.90;;;;;;5083056;28;20020;-92
2020/12/11 03:21:02;;;;;;;12.95;9.15;;;2.80;99.90;;;;;;5081499;28;20115;-93
2020/12/11 03:23:28;;;;;;;13.48;9.68;;;3.20;99.90;;;;;;5086685;28;20103;-92
2020/12/11 03:25:53;;;;;;;12.73;9.48;;;3.30;99.90;;;;;;5094009;28;20142;-92
2020/12/11 03:28:19;;;;;;;13.07;9.68;;;2.80;99.90;;;;;;5094932;28;20024;-92
2020/12/11 03:30:45;;;;;;;12.88;9.55;;;2.80;99.90;;;;;;5094584;28;20035;-92
2020/12/11 03:33:10;;;;;;;11.65;9.35;;;3.40;99.90;;;;;;5095130;28;20043;-93
2020/12/11 03:35:36;;;;;;;13.70;9.70;;;2.80;99.90;;;;;;5074963;28;20027;-92
2020/12/11 03:38:03;;;;;;;13.18;9.73;;;3.10;99.90;;;;;;5074979;28;20013;-93
2020/12/11 03:40:29;;;;;;;13.32;10.57;;;3.10;99.90;;;;;;5074973;28;20024;-93
2020/12/11 03:43:03;;;;;;;14.32;11.00;;;3.20;99.90;;;;;;5087093;28;20038;-93
2020/12/11 03:45:28;;;;;;;13.90;10.25;;;3.10;99.90;;;;;;5076740;28;20032;-93
2020/12/11 03:47:54;;;;;;;14.68;10.07;;;3.20;99.90;;;;;;5073732;28;20016;-92
2020/12/11 03:50:20;;;;;;;14.05;9.90;;;3.50;99.90;;;;;;5074630;28;20388;-92
2020/12/11 03:52:45;;;;;;;15.02;10.63;;;3.10;99.90;;;;;;5074357;28;20067;-93
2020/12/11 03:55:11;;;;;;;12.65;10.38;;;3.30;99.90;;;;;;5079497;28;20023;-92
2020/12/11 03:57:36;;;;;;;12.10;9.73;;;3.10;99.90;;;;;;5094529;28;20016;-92
2020/12/11 04:00:04;;;;;;;15.55;10.48;;;3.10;99.90;;;;;;5091077;28;20100;-93
2020/12/11 04:02:29;;;;;;;13.20;9.68;;;2.80;99.90;;;;;;5074952;28;20507;-92
2020/12/11 04:04:55;;;;;;;11.50;9.52;;;3.40;99.90;;;;;;5083923;28;20024;-92
2020/12/11 04:07:20;;;;;;;13.23;9.82;;;3.30;99.90;;;;;;5090656;28;20028;-93
2020/12/11 04:09:46;;;;;;;13.35;10.00;;;2.90;99.90;;;;;;5073887;28;20051;-92
2020/12/11 04:12:12;;;;;;;12.57;9.38;;;3.40;99.90;;;;;;5073665;28;20040;-93
2020/12/11 04:14:37;;;;;;;14.45;9.35;;;3.30;99.90;;;;;;5078861;28;20024;-93
2020/12/11 04:17:03;;;;;;;13.95;8.88;;;2.90;99.90;;;;;;5079648;28;20020;-92
2020/12/11 04:19:29;;;;;;;14.63;9.70;;;2.90;99.90;;;;;;5094309;28;20572;-93
2020/12/11 04:21:55;;;;;;;11.60;9.18;;;3.40;99.90;;;;;;5075066;28;20059;-93
2020/12/11 04:24:22;;;;;;;13.32;9.85;;;3.30;99.90;;;;;;5073583;28;20032;-93
2020/12/11 04:26:48;;;;;;;12.35;8.93;;;3.50;99.90;;;;;;5078839;28;20020;-92
2020/12/11 04:29:14;;;;;;;12.00;9.35;;;3.30;99.90;;;;;;5093631;28;20426;-92
2020/12/11 04:31:40;;;;;;;14.07;9.77;;;3.60;99.90;;;;;;5093194;28;20024;-92
2020/12/11 04:34:06;;;;;;;11.07;8.57;;;3.10;99.90;;;;;;5082240;28;20029;-93
2020/12/11 04:36:32;;;;;;;11.50;8.10;;;3.50;99.90;;;;;;5073624;28;20046;-92
2020/12/11 04:38:57;;;;;;;10.82;8.20;;;3.10;99.90;;;;;;5073613;28;20025;-92
2020/12/11 04:41:28;;;;;;;10.25;7.88;;;3.50;99.90;;;;;;5073681;28;20078;-92
2020/12/11 04:43:56;;;;;;;8.98;7.68;;;3.40;99.90;;;;;;5073411;28;20028;-92
2020/12/11 04:46:29;;;;;;;9.80;7.85;;;3.30;99.90;;;;;;5082204;28;20028;-93
2020/12/11 04:48:58;;;;;;;12.02;9.05;;;3.70;99.90;;;;;;5085002;28;20029;-92
2020/12/11 04:51:30;;;;;;;11.27;8.55;;;3.60;99.90;;;;;;5093452;28;20020;-92
2020/12/11 04:53:59;;;;;;;13.05;8.60;;;3.10;99.90;;;;;;5093662;28;20027;-93
2020/12/11 04:56:25;;;;;;;12.20;9.07;;;3.30;99.90;;;;;;5093082;28;20081;-92
2020/12/11 04:58:53;;;;;;;11.05;8.77;;;3.40;99.90;;;;;;5078966;28;20066;-93
2020/12/11 05:01:39;;;;;;;11.02;8.45;;;3.40;99.90;;;;;;5074405;28;20111;-92
2020/12/11 05:04:04;;;;;;;12.68;8.25;;;3.60;99.90;;;;;;5091713;28;20036;-93
2020/12/11 05:06:30;;;;;;;10.73;7.68;;;3.10;99.90;;;;;;5091190;28;20020;-93
2020/12/11 05:09:28;;;;;;;11.75;8.02;;;3.40;99.90;;;;;;5073098;28;20098;-93
2020/12/11 05:11:54;;;;;;;9.90;7.45;;;3.70;99.90;;;;;;5057170;28;20033;-92
2020/12/11 05:14:24;;;;;;;9.68;7.30;;;3.40;99.90;;;;;;5050241;28;20210;-93
2020/12/11 05:17:10;;;;;;;9.63;7.53;;;3.30;99.90;;;;;;5046294;28;20104;-92
2020/12/11 05:19:50;;;;;;;10.85;7.65;;;3.70;99.90;;;;;;5042314;28;20036;-93
2020/12/11 05:22:16;;;;;;;10.32;7.70;;;3.90;99.90;;;;;;5055343;28;20037;-93
2020/12/11 05:24:47;;;;;;;9.35;7.03;;;3.60;99.90;;;;;;5047621;28;20619;-93
2020/12/11 05:27:41;;;;;;;10.55;7.00;;;3.40;99.90;;;;;;5047499;28;20028;-93
2020/12/11 05:30:07;;;;;;;9.45;6.20;;;3.40;99.90;;;;;;5055556;28;20021;-93
2020/12/11 05:32:40;;;;;;;9.25;6.03;;;3.70;99.90;;;;;;5043575;28;20025;-92
2020/12/11 05:35:18;;;;;;;8.25;5.97;;;3.40;99.90;;;;;;5054557;28;20036;-92
2020/12/11 05:37:51;;;;;;;8.00;6.18;;;3.50;99.90;;;;;;5035354;28;20032;-93
2020/12/11 05:40:19;;;;;;;8.57;6.47;;;3.50;99.90;;;;;;5049304;28;20551;-93
2020/12/11 05:43:26;;;;;;;9.10;6.45;;;3.50;99.90;;;;;;5041066;28;20067;-93
2020/12/11 05:45:54;;;;;;;8.32;6.15;;;3.50;99.90;;;;;;5037436;28;20032;-92
2020/12/11 05:48:22;;;;;;;8.50;6.20;;;3.90;99.90;;;;;;5078789;28;20028;-92
2020/12/11 05:50:48;;;;;;;8.43;5.57;;;4.00;99.90;;;;;;5092502;28;20108;-92
2020/12/11 05:53:14;;;;;;;8.35;6.22;;;3.50;99.90;;;;;;5089026;28;20487;-93
2020/12/11 05:55:39;;;;;;;8.30;6.15;;;3.60;99.90;;;;;;5072664;28;20021;-92
2020/12/11 05:58:08;;;;;;;7.38;5.63;;;3.60;99.90;;;;;;5079126;28;20026;-93
2020/12/11 06:00:34;;;;;;;7.05;5.80;;;3.80;99.90;;;;;;5072588;28;20114;-92
2020/12/11 06:03:01;;;;;;;10.13;6.00;;;3.60;99.90;;;;;;5072434;28;20052;-92
2020/12/11 06:05:27;;;;;;;10.52;6.18;;;3.90;99.90;;;;;;5072202;28;20025;-92
2020/12/11 06:07:53;;;;;;;8.77;5.40;;;3.50;99.90;;;;;;5072604;28;20023;-92
2020/12/11 06:10:21;;;;;;;7.18;5.28;;;3.90;99.90;;;;;;5081634;28;20086;-92
2020/12/11 06:12:47;;;;;;;12.07;7.47;;;3.90;99.90;;;;;;5080147;28;20408;-92
2020/12/11 06:15:22;;;;;;;13.45;8.40;;;4.00;99.90;;;;;;5076498;28;20024;-93
2020/12/11 06:17:49;;;;;;;26.20;12.98;;;3.50;99.90;;;;;;5081858;28;20042;-92
2020/12/11 06:20:18;;;;;;;19.80;10.73;;;4.00;99.90;;;;;;5096483;28;20109;-92
2020/12/11 06:22:44;;;;;;;21.13;10.70;;;3.40;99.90;;;;;;5096386;28;20073;-93
2020/12/11 06:25:29;;;;;;;20.30;9.70;;;3.40;99.90;;;;;;5086112;28;20074;-93
2020/12/11 06:27:57;;;;;;;13.45;7.55;;;3.90;99.90;;;;;;5087737;28;20114;-92
2020/12/11 06:30:27;;;;;;;7.28;5.40;;;3.90;99.90;;;;;;5075832;28;20024;-92
2020/12/11 06:33:27;;;;;;;12.88;7.75;;;3.70;99.90;;;;;;5075717;28;20500;-92
2020/12/11 06:35:58;;;;;;;12.75;6.63;;;3.60;99.90;;;;;;5086774;28;20024;-92
2020/12/11 06:38:47;;;;;;;9.32;6.22;;;3.60;99.90;;;;;;5075673;28;20533;-92
2020/12/11 06:41:34;;;;;;;10.20;5.95;;;3.50;99.90;;;;;;5084339;28;20077;-92
2020/12/11 06:44:15;;;;;;;11.57;6.13;;;3.90;99.90;;;;;;5088829;28;20598;-92
2020/12/11 06:46:40;;;;;;;9.98;6.00;;;4.00;99.90;;;;;;5095443;28;20020;-92
2020/12/11 06:49:17;;;;;;;10.13;6.03;;;4.10;99.90;;;;;;5095693;28;20483;-93
2020/12/11 06:51:46;;;;;;;5.43;4.00;;;4.10;99.90;;;;;;5076003;28;20032;-92
2020/12/11 06:54:32;;;;;;;3.92;3.30;;;4.40;99.90;;;;;;5080974;28;20476;-93
2020/12/11 06:56:59;;;;;;;5.50;3.67;;;4.80;99.90;;;;;;5075384;28;20032;-92
2020/12/11 06:59:27;;;;;;;6.63;3.58;;;4.90;99.90;;;;;;5092439;28;20027;-92
2020/12/11 07:02:15;;;;;;;8.07;4.63;;;4.60;99.90;;;;;;5075573;28;20032;-93
2020/12/11 07:04:41;;;;;;;6.35;3.90;;;4.80;99.90;;;;;;5075653;28;20063;-93
2020/12/11 07:07:08;;;;;;;5.18;3.80;;;4.40;99.90;;;;;;5095562;28;20024;-93
2020/12/11 07:09:40;;;;;;;6.50;3.63;;;4.50;99.90;;;;;;5095722;28;20024;-93
2020/12/11 07:12:06;;;;;;;5.80;3.97;;;4.50;99.90;;;;;;5095144;28;20130;-93
2020/12/11 07:14:32;;;;;;;6.05;3.92;;;4.50;99.90;;;;;;5095842;28;20510;-94
2020/12/11 07:16:59;;;;;;;7.10;4.00;;;4.50;99.90;;;;;;5088873;28;20048;-93
2020/12/11 07:19:25;;;;;;;4.43;3.20;;;4.50;99.90;;;;;;5075264;28;20024;-93
2020/12/11 07:21:53;;;;;;;7.82;4.22;;;4.50;99.90;;;;;;5084217;28;20035;-94
2020/12/11 07:24:20;;;;;;;6.13;4.28;;;4.80;99.90;;;;;;5094663;28;20084;-95
2020/12/11 07:26:46;;;;;;;5.53;3.60;;;4.50;99.90;;;;;;5080735;28;20028;-96
2020/12/11 07:29:18;;;;;;;6.47;4.10;;;4.50;99.90;;;;;;5075115;28;20020;-93
2020/12/11 07:31:45;;;;;;;11.05;4.30;;;4.50;99.90;;;;;;5074875;28;20037;-93
2020/12/11 07:34:15;;;;;;;7.85;4.07;;;4.60;99.90;;;;;;5075589;28;20031;-96
2020/12/11 07:36:43;;;;;;;6.82;4.03;;;4.70;99.90;;;;;;5075786;28;20028;-96
2020/12/11 07:39:14;;;;;;;6.20;3.75;;;4.80;99.90;;;;;;5077345;28;20025;-93
2020/12/11 07:41:44;;;;;;;5.88;3.20;;;4.90;99.90;;;;;;5074944;28;20025;-95
2020/12/11 07:44:23;;;;;;;5.72;2.92;;;4.90;99.90;;;;;;5075096;28;20441;-95
2020/12/11 07:46:50;;;;;;;5.78;3.55;;;5.00;99.90;;;;;;5074925;28;20032;-95
2020/12/11 07:49:16;;;;;;;3.80;2.90;;;5.10;99.90;;;;;;5074701;28;20017;-93
2020/12/11 07:51:49;;;;;;;7.70;3.40;;;5.10;99.90;;;;;;5074644;28;20077;-93
2020/12/11 07:54:15;;;;;;;5.03;2.95;;;5.20;99.90;;;;;;5074453;28;20036;-94
2020/12/11 07:56:41;;;;;;;3.50;2.70;;;5.40;99.90;;;;;;5074637;28;20484;-92
2020/12/11 07:59:15;;;;;;;5.30;2.80;;;5.50;99.90;;;;;;5074524;28;20020;-91
2020/12/11 08:01:49;;;;;;;4.05;2.97;;;5.50;99.90;;;;;;5077161;28;20068;-91
2020/12/11 08:04:15;;;;;;;6.65;2.85;;;5.70;99.90;;;;;;5094806;28;20028;-91
2020/12/11 08:06:40;;;;;;;3.85;2.70;;;5.50;99.90;;;;;;5094468;28;20046;-91
2020/12/11 08:09:15;;;;;;;5.05;2.80;;;5.60;99.90;;;;;;5094591;28;20498;-93
2020/12/11 08:11:44;;;;;;;7.93;2.53;;;5.70;99.90;;;;;;5077529;28;20028;-93
2020/12/11 08:14:10;;;;;;;5.00;3.00;;;6.30;99.90;;;;;;5094318;28;20039;-96
2020/12/11 08:16:36;;;;;;;4.53;2.88;;;5.80;99.90;;;;;;5094732;28;20013;-96
2020/12/11 08:19:08;;;;;;;5.03;2.20;;;5.80;99.90;;;;;;5096468;28;20024;-96
2020/12/11 08:21:34;;;;;;;4.78;2.60;;;5.80;99.90;;;;;;5106612;28;20031;-96
2020/12/11 08:24:02;;;;;;;4.43;2.75;;;5.80;99.90;;;;;;5104128;28;20069;-96
2020/12/11 08:26:37;;;;;;;3.45;2.47;;;5.80;99.90;;;;;;5096073;28;20025;-93
2020/12/11 08:29:08;;;;;;;2.75;2.42;;;6.40;99.90;;;;;;5094107;28;20032;-94
2020/12/11 08:31:38;;;;;;;5.93;2.58;;;5.90;99.90;;;;;;5094335;28;20081;-94
2020/12/11 08:34:05;;;;;;;5.95;2.58;;;5.90;99.90;;;;;;5094268;28;20024;-94
2020/12/11 08:36:32;;;;;;;4.35;2.30;;;6.30;99.90;;;;;;5093999;28;20502;-94
2020/12/11 08:39:06;;;;;;;3.08;2.22;;;6.10;99.90;;;;;;5094021;28;20024;-94
2020/12/11 08:41:33;;;;;;;4.30;2.30;;;6.10;99.90;;;;;;5093866;28;20026;-95
2020/12/11 08:44:00;;;;;;;5.20;2.90;;;6.60;99.90;;;;;;5093839;28;20030;-95
2020/12/11 08:49:22;;;;;;;3.60;1.70;;;6.30;99.90;;;;;;5095081;28;20028;-95
2020/12/11 08:51:47;;;;;;;2.65;1.75;;;6.80;99.90;;;;;;5093393;28;20487;-96
2020/12/11 08:54:14;;;;;;;2.90;1.42;;;6.50;99.90;;;;;;5093622;28;20059;-95
2020/12/11 08:56:46;;;;;;;3.08;1.77;;;5.80;99.90;;;;;;5093767;28;20112;-95
2020/12/11 08:59:12;;;;;;;2.10;1.63;;;5.40;1.00;;;;;;5093832;28;20107;-96
2020/12/11 09:01:40;;;;;;;3.08;1.92;;;4.70;99.90;;;;;;5093610;28;20105;-94
2020/12/11 09:04:06;;;;;;;3.15;1.75;;;4.40;99.90;;;;;;5093410;28;20479;-94
2020/12/11 09:06:31;;;;;;;2.17;1.80;;;4.40;99.90;;;;;;5093452;28;20024;-93
2020/12/11 09:08:57;;;;;;;2.72;1.60;;;4.20;99.90;;;;;;5093201;28;20063;-92
2020/12/11 09:11:23;;;;;;;3.00;2.10;;;4.00;99.90;;;;;;5080189;28;20119;-91
2020/12/11 09:13:49;;;;;;;8.05;2.28;;;4.00;99.90;;;;;;5055994;28;20052;-94
2020/12/11 09:16:15;;;;;;;6.05;1.90;;;4.00;99.90;;;;;;5072284;28;20029;-90
2020/12/11 09:18:40;;;;;;;4.53;2.00;;;4.00;99.90;;;;;;5072392;28;20032;-90
2020/12/11 09:21:06;;;;;;;3.47;1.80;;;4.20;99.90;;;;;;5072758;28;20112;-90
2020/12/11 09:23:31;;;;;;;3.78;2.00;;;4.40;99.90;;;;;;5072266;28;20369;-89
2020/12/11 09:25:57;;;;;;;4.47;2.10;;;4.50;99.90;;;;;;5072127;28;20142;-90
2020/12/11 09:28:24;;;;;;;3.58;1.98;;;4.70;99.90;;;;;;5072454;28;20047;-91
2020/12/11 09:30:50;;;;;;;3.08;2.00;;;4.70;99.90;;;;;;5072339;28;20573;-92
2020/12/11 09:33:27;;;;;;;3.75;2.00;;;4.60;99.90;;;;;;5072607;28;20021;-93
2020/12/11 09:35:54;;;;;;;3.83;1.50;;;4.40;99.90;;;;;;5072740;28;20021;-92
2020/12/11 09:38:20;;;;;;;2.95;1.80;;;4.40;99.90;;;;;;5072088;28;20020;-91
2020/12/11 09:40:54;;;;;;;2.88;1.70;;;4.40;99.90;;;;;;5089747;28;20111;-91
2020/12/11 09:46:23;;;;;;;3.33;1.88;;;4.40;99.90;;;;;;5093082;28;20431;-93
2020/12/11 09:48:56;;;;;;;4.18;2.00;;;4.40;99.90;;;;;;5096478;28;20031;-96
2020/12/11 09:54:35;;;;;;;4.50;1.52;;;4.30;99.90;;;;;;5051084;28;20029;-88
2020/12/11 09:57:01;;;;;;;4.20;1.90;;;4.30;99.90;;;;;;5042868;28;20047;-89
2020/12/11 09:59:46;;;;;;;3.33;1.80;;;4.20;99.90;;;;;;5050190;28;20029;-89
2020/12/11 10:02:16;;;;;;;3.92;2.20;;;4.20;99.90;;;;;;5035454;28;20437;-89
2020/12/11 10:04:42;;;;;;;3.20;2.17;;;4.30;99.90;;;;;;5049071;28;20044;-90
2020/12/11 10:07:07;;;;;;;5.43;2.40;;;4.30;99.90;;;;;;5040734;28;20029;-89
2020/12/11 10:09:33;;;;;;;4.38;2.13;;;4.30;99.90;;;;;;5032497;28;20132;-89
2020/12/11 10:12:02;;;;;;;2.58;1.95;;;4.30;99.90;;;;;;5046430;28;20056;-88
2020/12/11 10:14:37;;;;;;;5.18;2.53;;;4.40;99.90;;;;;;5044881;28;20033;-88
2020/12/11 10:17:02;;;;;;;2.53;1.98;;;4.40;99.90;;;;;;5034033;28;20013;-89
2020/12/11 10:19:28;;;;;;;4.43;2.28;;;4.40;99.90;;;;;;5044699;28;20120;-88
2020/12/11 10:21:55;;;;;;;4.57;2.30;;;4.40;99.90;;;;;;5050035;28;20025;-89
2020/12/11 10:24:21;;;;;;;3.72;2.60;;;4.40;99.90;;;;;;5037219;28;20037;-91
2020/12/11 10:26:47;;;;;;;6.85;2.90;;;4.50;99.90;;;;;;5041773;28;20508;-90
2020/12/11 10:29:13;;;;;;;6.95;2.78;;;4.50;99.90;;;;;;5050335;28;20032;-91
2020/12/11 10:31:42;;;;;;;5.00;2.80;;;4.50;99.90;;;;;;5063036;28;20037;-90
2020/12/11 10:34:09;;;;;;;4.15;2.35;;;4.50;99.90;;;;;;5091904;28;20400;-90
2020/12/11 10:36:35;;;;;;;4.78;2.50;;;4.60;99.90;;;;;;5088218;28;20013;-91
2020/12/11 10:39:01;;;;;;;3.65;2.55;;;4.60;99.90;;;;;;5071731;28;20116;-90
2020/12/11 10:41:27;;;;;;;5.50;2.70;;;4.70;99.90;;;;;;5071504;28;20120;-90
2020/12/11 10:43:53;;;;;;;5.13;2.25;;;4.80;99.90;;;;;;5078954;28;20039;-91
2020/12/11 10:46:19;;;;;;;5.07;2.53;;;4.90;99.90;;;;;;5089028;28;20066;-91
2020/12/11 10:48:45;;;;;;;3.97;2.70;;;5.00;99.90;;;;;;5087645;28;20085;-89
2020/12/11 10:51:16;;;;;;;2.63;2.15;;;5.20;99.90;;;;;;5081018;28;20028;-93
2020/12/11 10:57:13;;;;;;;3.63;2.42;;;5.20;99.90;;;;;;5088112;28;20023;-95
2020/12/11 10:59:38;;;;;;;6.95;2.15;;;5.40;99.90;;;;;;5096399;28;20024;-94
2020/12/11 11:02:04;;;;;;;4.38;2.65;;;5.60;99.90;;;;;;5077270;28;20029;-94
2020/12/11 11:04:29;;;;;;;2.78;2.13;;;5.60;99.90;;;;;;5085222;28;20056;-94
2020/12/11 11:09:45;;;;;;;3.75;2.10;;;5.50;99.90;;;;;;5090190;28;20103;-92
2020/12/11 11:12:23;;;;;;;5.25;3.08;;;5.60;99.90;;;;;;5082072;28;20032;-89
2020/12/11 11:28:00;;;;;;;2.53;2.30;;;6.70;99.90;;;;;;5076144;28;20024;-90
2020/12/11 11:30:28;;;;;;;3.53;2.40;;;6.40;99.90;;;;;;5074782;28;20066;-90
2020/12/11 11:32:54;;;;;;;6.53;2.78;;;6.70;99.90;;;;;;5074996;28;20031;-94
2020/12/11 11:35:21;;;;;;;3.65;2.58;;;6.80;99.90;;;;;;5075299;28;20027;-91
2020/12/11 11:37:47;;;;;;;2.33;2.13;;;7.10;99.90;;;;;;5074826;28;20107;-92
2020/12/11 11:40:13;;;;;;;4.80;2.70;;;7.40;99.90;;;;;;5082484;28;20023;-93
2020/12/11 11:42:39;;;;;;;3.28;2.65;;;8.20;99.90;;;;;;5081840;28;20487;-93
2020/12/11 11:45:07;;;;;;;3.28;2.50;;;8.30;99.90;;;;;;5095010;28;20032;-96
2020/12/11 11:47:34;;;;;;;4.15;2.30;;;8.10;99.90;;;;;;5094527;28;20044;-94
2020/12/11 11:52:40;;;;;;;3.53;2.40;;;8.40;99.90;;;;;;5090559;28;20518;-93
2020/12/11 11:55:06;;;;;;;3.65;2.53;;;8.20;99.90;;;;;;5081054;28;20032;-91
2020/12/11 11:57:39;;;;;;;2.70;2.10;;;8.00;99.90;;;;;;5074243;28;20028;-91
2020/12/11 12:00:08;;;;;;;2.75;2.00;;;7.80;99.90;;;;;;5075054;28;20388;-92
2020/12/11 12:02:34;;;;;;;2.80;2.50;;;8.40;99.90;;;;;;5074181;28;20111;-91
2020/12/11 12:05:00;;;;;;;4.72;2.83;;;11.20;99.90;;;;;;5079324;28;20111;-92
2020/12/11 12:07:26;;;;;;;3.63;2.72;;;12.30;99.90;;;;;;5092431;28;20111;-92
2020/12/11 12:09:52;;;;;;;2.33;2.03;;;13.80;99.90;;;;;;5093085;28;20444;-91
2020/12/11 12:12:18;;;;;;;2.38;2.10;;;13.70;99.90;;;;;;5089204;28;20520;-92
2020/12/11 12:14:46;;;;;;;1.70;1.60;;;12.50;99.90;;;;;;5093218;28;20012;-95
2020/12/11 12:17:12;;;;;;;2.95;1.25;;;12.20;99.90;;;;;;5093308;28;20020;-89
2020/12/11 12:19:44;;;;;;;1.77;1.50;;;14.30;99.90;;;;;;5083163;28;20035;-88
2020/12/11 12:30:04;;;;;;;1.42;1.30;;;15.90;99.90;;;;;;5086529;28;20060;-89
2020/12/11 12:32:37;;;;;;;2.55;1.40;;;16.10;99.90;;;;;;5072656;28;20110;-87
2020/12/11 12:35:18;;;;;;;1.85;1.30;;;14.40;99.90;;;;;;5076676;28;20428;-88
2020/12/11 12:37:49;;;;;;;1.55;1.40;;;12.40;99.90;;;;;;5093408;28;20020;-88
2020/12/11 12:45:33;;;;;;;1.95;1.50;;;14.80;99.90;;;;;;5083908;28;20028;-87
2020/12/11 12:47:58;;;;;;;2.00;1.38;;;14.00;99.90;;;;;;5073784;28;20028;-87
2020/12/11 12:50:24;;;;;;;3.22;1.85;;;11.80;99.90;;;;;;5081098;28;20076;-88
2020/12/11 12:52:50;;;;;;;2.22;1.63;;;12.70;99.90;;;;;;5091190;28;20609;-88
2020/12/11 12:55:18;;;;;;;3.40;1.60;;;14.50;99.90;;;;;;5080746;28;20028;-88
2020/12/11 12:57:58;;;;;;;1.55;1.45;;;13.50;99.90;;;;;;5092604;28;20020;-88
2020/12/11 13:00:29;;;;;;;2.80;1.55;;;12.10;99.90;;;;;;5092621;28;20391;-89
2020/12/11 13:05:32;;;;;;;1.52;1.40;;;11.20;99.90;;;;;;5083789;28;20025;-88
2020/12/11 13:08:02;;;;;;;1.75;1.50;;;10.50;99.90;;;;;;5072019;28;20029;-88
2020/12/11 13:10:29;;;;;;;2.45;1.40;;;10.00;99.90;;;;;;5072276;28;20559;-88
2020/12/11 13:12:54;;;;;;;2.53;1.42;;;9.40;99.90;;;;;;5071870;28;20070;-88
2020/12/11 13:15:20;;;;;;;1.80;1.58;;;9.40;99.90;;;;;;5072149;28;20028;-88
2020/12/11 13:17:46;;;;;;;4.43;1.42;;;9.10;99.90;;;;;;5072182;28;20078;-89
2020/12/11 13:20:14;;;;;;;1.67;1.45;;;9.10;99.90;;;;;;5073946;28;20490;-88
2020/12/11 13:27:52;;;;;;;2.13;1.70;;;8.90;99.90;;;;;;5073570;28;20039;-88
2020/12/11 13:30:19;;;;;;;1.60;1.35;;;8.90;99.90;;;;;;5071909;28;20028;-88
2020/12/11 13:32:50;;;;;;;2.15;1.35;;;8.60;99.90;;;;;;5071966;28;20029;-89
2020/12/11 13:35:15;;;;;;;1.50;1.40;;;8.50;99.90;;;;;;5071831;28;20114;-88
2020/12/11 13:37:41;;;;;;;1.63;1.52;;;8.50;99.90;;;;;;5073161;28;20481;-88
2020/12/11 13:40:07;;;;;;;1.67;1.50;;;8.50;99.90;;;;;;5072922;28;20025;-88
2020/12/11 13:42:33;;;;;;;1.83;1.50;;;8.20;99.90;;;;;;5071680;28;20036;-88
2020/12/11 13:44:59;;;;;;;1.88;1.48;;;8.30;99.90;;;;;;5071864;28;20388;-87
2020/12/11 13:47:25;;;;;;;1.98;1.50;;;8.20;99.90;;;;;;5071814;28;20028;-88